sensor_id;sensor_type;location;lat;lon;timestamp;P1;durP1;ratioP1;P2;durP2;ratioP2
45620;SDS011;31345;51.522;10.702;2023-03-01T00:01:07;14.70;;;9.33;;
45620;SDS011;31345;51.522;10.702;2023-03-01T00:03:37;15.67;;;9.67;;
45620;SDS011;31345;51.522;10.702;2023-03-01T00:06:10;14.87;;;9.87;;
45620;SDS011;31345;51.522;10.702;2023-03-01T00:08:43;16.23;;;9.27;;
45620;SDS011;31345;51.522;10.702;2023-03-01T00:11:16;14.27;;;9.63;;
45620;SDS011;31345;51.522;10.702;2023-03-01T00:13:51;14.40;;;9.27;;
45620;SDS011;31345;51.522;10.702;2023-03-01T00:16:22;13.73;;;9.00;;
45620;SDS011;31345;51.522;10.702;2023-03-01T00:18:51;12.33;;;8.80;;
45620;SDS011;31345;51.522;10.702;2023-03-01T00:21:25;13.27;;;8.60;;
45620;SDS011;31345;51.522;10.702;2023-03-01T00:23:54;11.50;;;8.53;;
45620;SDS011;31345;51.522;10.702;2023-03-01T00:26:27;13.93;;;9.00;;
45620;SDS011;31345;51.522;10.702;2023-03-01T00:29:00;15.03;;;9.73;;
45620;SDS011;31345;51.522;10.702;2023-03-01T00:31:34;12.30;;;8.53;;
45620;SDS011;31345;51.522;10.702;2023-03-01T00:34:07;12.23;;;8.30;;
45620;SDS011;31345;51.522;10.702;2023-03-01T00:36:36;11.77;;;7.57;;
45620;SDS011;31345;51.522;10.702;2023-03-01T00:39:05;12.50;;;8.40;;
45620;SDS011;31345;51.522;10.702;2023-03-01T00:41:42;12.50;;;8.27;;
45620;SDS011;31345;51.522;10.702;2023-03-01T00:44:10;12.03;;;8.43;;
45620;SDS011;31345;51.522;10.702;2023-03-01T00:46:44;12.83;;;7.73;;
45620;SDS011;31345;51.522;10.702;2023-03-01T00:49:17;11.20;;;7.70;;
45620;SDS011;31345;51.522;10.702;2023-03-01T00:51:45;12.73;;;8.10;;
45620;SDS011;31345;51.522;10.702;2023-03-01T00:54:17;13.47;;;8.07;;
45620;SDS011;31345;51.522;10.702;2023-03-01T00:56:52;14.47;;;8.03;;
45620;SDS011;31345;51.522;10.702;2023-03-01T00:59:24;12.10;;;8.27;;
45620;SDS011;31345;51.522;10.702;2023-03-01T01:01:58;12.07;;;7.80;;
45620;SDS011;31345;51.522;10.702;2023-03-01T01:04:25;10.53;;;7.40;;
45620;SDS011;31345;51.522;10.702;2023-03-01T01:06:58;12.73;;;8.47;;
45620;SDS011;31345;51.522;10.702;2023-03-01T01:09:31;17.63;;;8.43;;
45620;SDS011;31345;51.522;10.702;2023-03-01T01:12:04;13.50;;;8.03;;
45620;SDS011;31345;51.522;10.702;2023-03-01T01:14:37;14.03;;;8.53;;
45620;SDS011;31345;51.522;10.702;2023-03-01T01:17:06;12.83;;;8.33;;
45620;SDS011;31345;51.522;10.702;2023-03-01T01:19:34;12.37;;;7.53;;
45620;SDS011;31345;51.522;10.702;2023-03-01T01:22:02;15.10;;;7.50;;
45620;SDS011;31345;51.522;10.702;2023-03-01T01:24:36;11.63;;;6.87;;
45620;SDS011;31345;51.522;10.702;2023-03-01T01:27:04;11.03;;;7.47;;
45620;SDS011;31345;51.522;10.702;2023-03-01T01:29:33;13.47;;;8.30;;
45620;SDS011;31345;51.522;10.702;2023-03-01T01:32:00;16.03;;;8.40;;
45620;SDS011;31345;51.522;10.702;2023-03-01T01:34:34;12.63;;;7.87;;
45620;SDS011;31345;51.522;10.702;2023-03-01T01:37:07;12.20;;;7.27;;
45620;SDS011;31345;51.522;10.702;2023-03-01T01:39:39;13.87;;;7.63;;
45620;SDS011;31345;51.522;10.702;2023-03-01T01:42:08;11.17;;;7.37;;
45620;SDS011;31345;51.522;10.702;2023-03-01T01:44:47;12.40;;;7.43;;
45620;SDS011;31345;51.522;10.702;2023-03-01T01:47:20;13.80;;;8.00;;
45620;SDS011;31345;51.522;10.702;2023-03-01T01:49:52;12.40;;;8.00;;
45620;SDS011;31345;51.522;10.702;2023-03-01T01:52:27;13.80;;;8.07;;
45620;SDS011;31345;51.522;10.702;2023-03-01T01:55:04;13.23;;;8.10;;
45620;SDS011;31345;51.522;10.702;2023-03-01T01:57:41;14.23;;;7.97;;
45620;SDS011;31345;51.522;10.702;2023-03-01T02:00:13;13.10;;;8.40;;
45620;SDS011;31345;51.522;10.702;2023-03-01T02:02:49;13.43;;;8.07;;
45620;SDS011;31345;51.522;10.702;2023-03-01T02:05:24;12.77;;;8.00;;
45620;SDS011;31345;51.522;10.702;2023-03-01T02:07:58;10.57;;;6.83;;
45620;SDS011;31345;51.522;10.702;2023-03-01T02:10:31;13.43;;;8.03;;
45620;SDS011;31345;51.522;10.702;2023-03-01T02:13:05;12.47;;;7.60;;
45620;SDS011;31345;51.522;10.702;2023-03-01T02:15:34;12.53;;;8.47;;
45620;SDS011;31345;51.522;10.702;2023-03-01T02:18:03;13.67;;;7.93;;
45620;SDS011;31345;51.522;10.702;2023-03-01T02:20:40;11.73;;;8.00;;
45620;SDS011;31345;51.522;10.702;2023-03-01T02:23:18;13.55;;;7.30;;
45620;SDS011;31345;51.522;10.702;2023-03-01T02:25:53;12.13;;;7.77;;
45620;SDS011;31345;51.522;10.702;2023-03-01T02:28:27;13.10;;;8.53;;
45620;SDS011;31345;51.522;10.702;2023-03-01T02:31:03;12.83;;;7.77;;
45620;SDS011;31345;51.522;10.702;2023-03-01T02:33:56;12.93;;;7.13;;
45620;SDS011;31345;51.522;10.702;2023-03-01T02:36:31;12.57;;;7.73;;
45620;SDS011;31345;51.522;10.702;2023-03-01T02:39:03;12.00;;;7.97;;
45620;SDS011;31345;51.522;10.702;2023-03-01T02:41:38;13.20;;;7.77;;
45620;SDS011;31345;51.522;10.702;2023-03-01T02:44:09;13.30;;;8.03;;
45620;SDS011;31345;51.522;10.702;2023-03-01T02:46:41;11.53;;;7.37;;
45620;SDS011;31345;51.522;10.702;2023-03-01T02:49:22;14.13;;;8.87;;
45620;SDS011;31345;51.522;10.702;2023-03-01T02:55:00;13.03;;;8.03;;
45620;SDS011;31345;51.522;10.702;2023-03-01T03:00:02;13.43;;;8.57;;
45620;SDS011;31345;51.522;10.702;2023-03-01T03:02:35;14.60;;;8.37;;
45620;SDS011;31345;51.522;10.702;2023-03-01T03:05:21;13.27;;;8.17;;
45620;SDS011;31345;51.522;10.702;2023-03-01T03:07:59;13.87;;;8.70;;
45620;SDS011;31345;51.522;10.702;2023-03-01T03:10:33;13.73;;;8.50;;
45620;SDS011;31345;51.522;10.702;2023-03-01T03:13:08;16.77;;;8.70;;
45620;SDS011;31345;51.522;10.702;2023-03-01T03:15:39;16.27;;;8.63;;
45620;SDS011;31345;51.522;10.702;2023-03-01T03:18:14;13.47;;;9.27;;
45620;SDS011;31345;51.522;10.702;2023-03-01T03:20:43;11.48;;;7.25;;
45620;SDS011;31345;51.522;10.702;2023-03-01T03:23:11;14.37;;;8.83;;
45620;SDS011;31345;51.522;10.702;2023-03-01T03:25:39;20.53;;;9.53;;
45620;SDS011;31345;51.522;10.702;2023-03-01T03:28:12;15.23;;;9.47;;
45620;SDS011;31345;51.522;10.702;2023-03-01T03:30:46;15.43;;;9.30;;
45620;SDS011;31345;51.522;10.702;2023-03-01T03:33:18;17.63;;;10.60;;
45620;SDS011;31345;51.522;10.702;2023-03-01T03:35:47;14.50;;;9.23;;
45620;SDS011;31345;51.522;10.702;2023-03-01T03:38:21;14.53;;;9.00;;
45620;SDS011;31345;51.522;10.702;2023-03-01T03:40:49;16.87;;;9.80;;
45620;SDS011;31345;51.522;10.702;2023-03-01T03:43:23;16.83;;;9.10;;
45620;SDS011;31345;51.522;10.702;2023-03-01T03:45:57;15.80;;;9.47;;
45620;SDS011;31345;51.522;10.702;2023-03-01T03:48:30;13.10;;;8.40;;
45620;SDS011;31345;51.522;10.702;2023-03-01T03:50:58;15.57;;;9.10;;
45620;SDS011;31345;51.522;10.702;2023-03-01T03:53:26;14.37;;;9.00;;
45620;SDS011;31345;51.522;10.702;2023-03-01T03:56:00;14.20;;;8.33;;
45620;SDS011;31345;51.522;10.702;2023-03-01T03:58:32;13.57;;;7.83;;
45620;SDS011;31345;51.522;10.702;2023-03-01T04:01:06;13.20;;;8.00;;
45620;SDS011;31345;51.522;10.702;2023-03-01T04:03:39;14.53;;;8.73;;
45620;SDS011;31345;51.522;10.702;2023-03-01T04:06:12;14.20;;;9.07;;
45620;SDS011;31345;51.522;10.702;2023-03-01T04:08:46;15.00;;;8.80;;
45620;SDS011;31345;51.522;10.702;2023-03-01T04:11:21;13.33;;;8.90;;
45620;SDS011;31345;51.522;10.702;2023-03-01T04:13:56;16.23;;;9.20;;
45620;SDS011;31345;51.522;10.702;2023-03-01T04:16:27;13.38;;;8.48;;
45620;SDS011;31345;51.522;10.702;2023-03-01T04:18:55;16.73;;;9.73;;
45620;SDS011;31345;51.522;10.702;2023-03-01T04:21:30;16.63;;;9.63;;
45620;SDS011;31345;51.522;10.702;2023-03-01T04:23:58;15.30;;;8.77;;
45620;SDS011;31345;51.522;10.702;2023-03-01T04:26:25;12.27;;;7.67;;
45620;SDS011;31345;51.522;10.702;2023-03-01T04:28:58;13.83;;;8.87;;
45620;SDS011;31345;51.522;10.702;2023-03-01T04:31:31;13.57;;;9.07;;
45620;SDS011;31345;51.522;10.702;2023-03-01T04:34:00;17.00;;;9.57;;
45620;SDS011;31345;51.522;10.702;2023-03-01T04:36:32;17.00;;;9.67;;
45620;SDS011;31345;51.522;10.702;2023-03-01T04:39:01;16.77;;;9.93;;
45620;SDS011;31345;51.522;10.702;2023-03-01T04:41:44;19.07;;;10.10;;
45620;SDS011;31345;51.522;10.702;2023-03-01T04:44:16;19.27;;;9.93;;
45620;SDS011;31345;51.522;10.702;2023-03-01T04:46:51;14.43;;;9.03;;
45620;SDS011;31345;51.522;10.702;2023-03-01T04:49:19;16.03;;;10.00;;
45620;SDS011;31345;51.522;10.702;2023-03-01T04:51:46;16.33;;;9.20;;
45620;SDS011;31345;51.522;10.702;2023-03-01T04:54:14;15.93;;;9.43;;
45620;SDS011;31345;51.522;10.702;2023-03-01T04:56:47;18.40;;;10.03;;
45620;SDS011;31345;51.522;10.702;2023-03-01T04:59:14;17.23;;;9.90;;
45620;SDS011;31345;51.522;10.702;2023-03-01T05:01:42;14.63;;;9.50;;
45620;SDS011;31345;51.522;10.702;2023-03-01T05:04:11;16.10;;;9.90;;
45620;SDS011;31345;51.522;10.702;2023-03-01T05:06:43;17.43;;;10.10;;
45620;SDS011;31345;51.522;10.702;2023-03-01T05:09:11;15.70;;;9.80;;
45620;SDS011;31345;51.522;10.702;2023-03-01T05:11:39;17.07;;;9.80;;
45620;SDS011;31345;51.522;10.702;2023-03-01T05:14:11;16.27;;;10.13;;
45620;SDS011;31345;51.522;10.702;2023-03-01T05:16:39;17.80;;;10.30;;
45620;SDS011;31345;51.522;10.702;2023-03-01T05:19:13;16.30;;;9.73;;
45620;SDS011;31345;51.522;10.702;2023-03-01T05:21:47;16.90;;;9.80;;
45620;SDS011;31345;51.522;10.702;2023-03-01T05:24:31;16.83;;;9.57;;
45620;SDS011;31345;51.522;10.702;2023-03-01T05:27:00;15.13;;;9.23;;
45620;SDS011;31345;51.522;10.702;2023-03-01T05:29:30;14.67;;;9.07;;
45620;SDS011;31345;51.522;10.702;2023-03-01T05:32:01;14.30;;;8.77;;
45620;SDS011;31345;51.522;10.702;2023-03-01T05:34:35;13.90;;;7.60;;
45620;SDS011;31345;51.522;10.702;2023-03-01T05:37:09;21.67;;;8.53;;
45620;SDS011;31345;51.522;10.702;2023-03-01T05:39:41;11.67;;;7.70;;
45620;SDS011;31345;51.522;10.702;2023-03-01T05:42:14;14.33;;;7.97;;
45620;SDS011;31345;51.522;10.702;2023-03-01T05:44:46;15.23;;;7.97;;
45620;SDS011;31345;51.522;10.702;2023-03-01T05:47:14;16.83;;;8.07;;
45620;SDS011;31345;51.522;10.702;2023-03-01T05:49:43;12.20;;;7.30;;
45620;SDS011;31345;51.522;10.702;2023-03-01T05:52:10;13.70;;;8.77;;
45620;SDS011;31345;51.522;10.702;2023-03-01T05:54:43;17.27;;;9.53;;
45620;SDS011;31345;51.522;10.702;2023-03-01T05:57:11;14.17;;;9.43;;
45620;SDS011;31345;51.522;10.702;2023-03-01T05:59:39;19.77;;;9.27;;
45620;SDS011;31345;51.522;10.702;2023-03-01T06:02:11;12.50;;;8.20;;
45620;SDS011;31345;51.522;10.702;2023-03-01T06:04:45;15.40;;;8.57;;
45620;SDS011;31345;51.522;10.702;2023-03-01T06:07:18;11.57;;;8.07;;
45620;SDS011;31345;51.522;10.702;2023-03-01T06:09:45;17.60;;;8.83;;
45620;SDS011;31345;51.522;10.702;2023-03-01T06:12:13;16.17;;;8.63;;
45620;SDS011;31345;51.522;10.702;2023-03-01T06:14:40;16.50;;;9.07;;
45620;SDS011;31345;51.522;10.702;2023-03-01T06:17:13;17.63;;;9.27;;
45620;SDS011;31345;51.522;10.702;2023-03-01T06:19:41;11.83;;;7.80;;
45620;SDS011;31345;51.522;10.702;2023-03-01T06:22:10;17.40;;;9.33;;
45620;SDS011;31345;51.522;10.702;2023-03-01T06:24:37;17.53;;;9.63;;
45620;SDS011;31345;51.522;10.702;2023-03-01T06:27:04;15.97;;;9.43;;
45620;SDS011;31345;51.522;10.702;2023-03-01T06:29:32;18.93;;;10.23;;
45620;SDS011;31345;51.522;10.702;2023-03-01T06:32:05;18.87;;;10.13;;
45620;SDS011;31345;51.522;10.702;2023-03-01T06:34:34;15.63;;;9.57;;
45620;SDS011;31345;51.522;10.702;2023-03-01T06:37:01;16.77;;;9.60;;
45620;SDS011;31345;51.522;10.702;2023-03-01T06:39:37;14.30;;;8.33;;
45620;SDS011;31345;51.522;10.702;2023-03-01T06:42:10;12.97;;;9.13;;
45620;SDS011;31345;51.522;10.702;2023-03-01T06:44:37;19.43;;;9.93;;
45620;SDS011;31345;51.522;10.702;2023-03-01T06:47:10;17.00;;;9.60;;
45620;SDS011;31345;51.522;10.702;2023-03-01T06:49:43;18.23;;;9.43;;
45620;SDS011;31345;51.522;10.702;2023-03-01T06:52:10;17.93;;;8.93;;
45620;SDS011;31345;51.522;10.702;2023-03-01T06:54:44;17.40;;;9.93;;
45620;SDS011;31345;51.522;10.702;2023-03-01T06:57:17;16.03;;;9.70;;
45620;SDS011;31345;51.522;10.702;2023-03-01T06:59:50;16.07;;;9.57;;
45620;SDS011;31345;51.522;10.702;2023-03-01T07:02:23;15.93;;;9.63;;
45620;SDS011;31345;51.522;10.702;2023-03-01T07:04:56;18.53;;;9.73;;
45620;SDS011;31345;51.522;10.702;2023-03-01T07:07:28;16.37;;;8.97;;
45620;SDS011;31345;51.522;10.702;2023-03-01T07:10:02;17.20;;;10.10;;
45620;SDS011;31345;51.522;10.702;2023-03-01T07:12:30;19.17;;;10.33;;
45620;SDS011;31345;51.522;10.702;2023-03-01T07:15:03;15.17;;;9.90;;
45620;SDS011;31345;51.522;10.702;2023-03-01T07:17:37;19.17;;;9.77;;
45620;SDS011;31345;51.522;10.702;2023-03-01T07:20:09;16.83;;;9.53;;
45620;SDS011;31345;51.522;10.702;2023-03-01T07:22:43;22.17;;;12.93;;
45620;SDS011;31345;51.522;10.702;2023-03-01T07:25:17;28.10;;;14.67;;
45620;SDS011;31345;51.522;10.702;2023-03-01T07:27:50;32.37;;;16.37;;
45620;SDS011;31345;51.522;10.702;2023-03-01T07:30:23;19.60;;;11.60;;
45620;SDS011;31345;51.522;10.702;2023-03-01T07:32:54;17.25;;;11.10;;
45620;SDS011;31345;51.522;10.702;2023-03-01T07:35:27;20.90;;;12.87;;
45620;SDS011;31345;51.522;10.702;2023-03-01T07:37:55;19.60;;;11.23;;
45620;SDS011;31345;51.522;10.702;2023-03-01T07:40:29;18.53;;;11.50;;
45620;SDS011;31345;51.522;10.702;2023-03-01T07:43:02;26.40;;;13.23;;
45620;SDS011;31345;51.522;10.702;2023-03-01T07:45:34;56.73;;;28.07;;
45620;SDS011;31345;51.522;10.702;2023-03-01T07:48:07;21.53;;;12.77;;
45620;SDS011;31345;51.522;10.702;2023-03-01T07:50:35;16.70;;;10.17;;
45620;SDS011;31345;51.522;10.702;2023-03-01T07:53:03;14.27;;;10.30;;
45620;SDS011;31345;51.522;10.702;2023-03-01T07:55:37;18.80;;;10.50;;
45620;SDS011;31345;51.522;10.702;2023-03-01T07:58:04;17.83;;;10.87;;
45620;SDS011;31345;51.522;10.702;2023-03-01T08:00:37;15.87;;;9.63;;
45620;SDS011;31345;51.522;10.702;2023-03-01T08:03:04;13.17;;;8.93;;
45620;SDS011;31345;51.522;10.702;2023-03-01T08:05:37;15.93;;;9.77;;
45620;SDS011;31345;51.522;10.702;2023-03-01T08:08:09;14.10;;;10.03;;
45620;SDS011;31345;51.522;10.702;2023-03-01T08:10:43;16.63;;;10.80;;
45620;SDS011;31345;51.522;10.702;2023-03-01T08:13:11;15.17;;;9.47;;
45620;SDS011;31345;51.522;10.702;2023-03-01T08:15:38;14.47;;;9.13;;
45620;SDS011;31345;51.522;10.702;2023-03-01T08:18:06;16.73;;;9.63;;
45620;SDS011;31345;51.522;10.702;2023-03-01T08:20:33;15.63;;;10.37;;
45620;SDS011;31345;51.522;10.702;2023-03-01T08:23:06;15.43;;;8.97;;
45620;SDS011;31345;51.522;10.702;2023-03-01T08:25:38;14.03;;;9.63;;
45620;SDS011;31345;51.522;10.702;2023-03-01T08:28:13;13.33;;;9.70;;
45620;SDS011;31345;51.522;10.702;2023-03-01T08:30:45;15.37;;;9.10;;
45620;SDS011;31345;51.522;10.702;2023-03-01T08:33:18;14.83;;;8.70;;
45620;SDS011;31345;51.522;10.702;2023-03-01T08:35:50;12.57;;;9.13;;
45620;SDS011;31345;51.522;10.702;2023-03-01T08:38:23;15.90;;;10.03;;
45620;SDS011;31345;51.522;10.702;2023-03-01T08:40:58;21.60;;;12.10;;
45620;SDS011;31345;51.522;10.702;2023-03-01T08:43:28;18.50;;;11.00;;
45620;SDS011;31345;51.522;10.702;2023-03-01T08:45:56;16.30;;;10.00;;
45620;SDS011;31345;51.522;10.702;2023-03-01T08:48:24;14.60;;;8.53;;
45620;SDS011;31345;51.522;10.702;2023-03-01T08:50:51;13.67;;;8.90;;
45620;SDS011;31345;51.522;10.702;2023-03-01T08:53:24;16.00;;;9.97;;
45620;SDS011;31345;51.522;10.702;2023-03-01T08:55:52;18.23;;;11.20;;
45620;SDS011;31345;51.522;10.702;2023-03-01T08:58:19;16.70;;;9.70;;
45620;SDS011;31345;51.522;10.702;2023-03-01T09:00:53;14.27;;;9.70;;
45620;SDS011;31345;51.522;10.702;2023-03-01T09:03:27;15.70;;;9.67;;
45620;SDS011;31345;51.522;10.702;2023-03-01T09:06:00;22.30;;;12.77;;
45620;SDS011;31345;51.522;10.702;2023-03-01T09:08:34;19.87;;;12.37;;
45620;SDS011;31345;51.522;10.702;2023-03-01T09:11:07;20.63;;;10.47;;
45620;SDS011;31345;51.522;10.702;2023-03-01T09:13:36;19.80;;;10.33;;
45620;SDS011;31345;51.522;10.702;2023-03-01T09:16:10;19.03;;;10.47;;
45620;SDS011;31345;51.522;10.702;2023-03-01T09:18:48;17.00;;;11.07;;
45620;SDS011;31345;51.522;10.702;2023-03-01T09:21:22;16.30;;;9.67;;
45620;SDS011;31345;51.522;10.702;2023-03-01T09:23:50;14.70;;;9.33;;
45620;SDS011;31345;51.522;10.702;2023-03-01T09:26:19;17.73;;;9.67;;
45620;SDS011;31345;51.522;10.702;2023-03-01T09:28:48;15.07;;;9.67;;
45620;SDS011;31345;51.522;10.702;2023-03-01T09:31:19;14.00;;;9.03;;
45620;SDS011;31345;51.522;10.702;2023-03-01T09:33:53;28.93;;;12.60;;
45620;SDS011;31345;51.522;10.702;2023-03-01T09:36:26;15.47;;;9.83;;
45620;SDS011;31345;51.522;10.702;2023-03-01T09:38:54;15.90;;;10.23;;
45620;SDS011;31345;51.522;10.702;2023-03-01T09:41:36;15.10;;;9.97;;
45620;SDS011;31345;51.522;10.702;2023-03-01T09:44:34;18.83;;;10.40;;
45620;SDS011;31345;51.522;10.702;2023-03-01T09:47:14;16.00;;;10.27;;
45620;SDS011;31345;51.522;10.702;2023-03-01T09:49:53;20.57;;;10.63;;
45620;SDS011;31345;51.522;10.702;2023-03-01T09:52:35;19.50;;;10.60;;
45620;SDS011;31345;51.522;10.702;2023-03-01T09:55:13;18.70;;;10.63;;
45620;SDS011;31345;51.522;10.702;2023-03-01T09:57:49;15.43;;;10.33;;
45620;SDS011;31345;51.522;10.702;2023-03-01T10:00:28;14.77;;;10.30;;
45620;SDS011;31345;51.522;10.702;2023-03-01T10:03:02;16.97;;;10.10;;
45620;SDS011;31345;51.522;10.702;2023-03-01T10:05:47;18.33;;;9.73;;
45620;SDS011;31345;51.522;10.702;2023-03-01T10:08:27;13.43;;;8.40;;
45620;SDS011;31345;51.522;10.702;2023-03-01T10:11:14;11.23;;;7.20;;
45620;SDS011;31345;51.522;10.702;2023-03-01T10:13:48;12.30;;;8.10;;
45620;SDS011;31345;51.522;10.702;2023-03-01T10:16:27;12.90;;;7.20;;
45620;SDS011;31345;51.522;10.702;2023-03-01T10:19:05;15.10;;;8.00;;
45620;SDS011;31345;51.522;10.702;2023-03-01T10:21:41;13.33;;;7.87;;
45620;SDS011;31345;51.522;10.702;2023-03-01T10:24:17;11.80;;;7.87;;
45620;SDS011;31345;51.522;10.702;2023-03-01T10:26:48;13.43;;;7.83;;
45620;SDS011;31345;51.522;10.702;2023-03-01T10:29:23;13.57;;;9.07;;
45620;SDS011;31345;51.522;10.702;2023-03-01T10:32:02;11.97;;;7.77;;
45620;SDS011;31345;51.522;10.702;2023-03-01T10:34:38;15.57;;;7.93;;
45620;SDS011;31345;51.522;10.702;2023-03-01T10:37:11;14.40;;;8.13;;
45620;SDS011;31345;51.522;10.702;2023-03-01T10:39:58;12.57;;;7.40;;
45620;SDS011;31345;51.522;10.702;2023-03-01T10:42:37;15.30;;;8.13;;
45620;SDS011;31345;51.522;10.702;2023-03-01T10:45:16;13.53;;;8.63;;
45620;SDS011;31345;51.522;10.702;2023-03-01T10:48:04;13.90;;;8.57;;
45620;SDS011;31345;51.522;10.702;2023-03-01T10:50:44;18.13;;;8.40;;
45620;SDS011;31345;51.522;10.702;2023-03-01T10:53:25;13.83;;;8.97;;
45620;SDS011;31345;51.522;10.702;2023-03-01T10:55:58;28.20;;;15.37;;
45620;SDS011;31345;51.522;10.702;2023-03-01T10:58:33;11.87;;;7.53;;
45620;SDS011;31345;51.522;10.702;2023-03-01T11:01:03;13.50;;;7.77;;
45620;SDS011;31345;51.522;10.702;2023-03-01T11:03:37;11.53;;;7.03;;
45620;SDS011;31345;51.522;10.702;2023-03-01T11:06:21;11.13;;;7.03;;
45620;SDS011;31345;51.522;10.702;2023-03-01T11:08:54;12.50;;;6.53;;
45620;SDS011;31345;51.522;10.702;2023-03-01T11:11:23;10.23;;;6.73;;
45620;SDS011;31345;51.522;10.702;2023-03-01T11:14:03;11.67;;;7.83;;
45620;SDS011;31345;51.522;10.702;2023-03-01T11:16:40;9.67;;;6.33;;
45620;SDS011;31345;51.522;10.702;2023-03-01T11:19:16;10.17;;;6.50;;
45620;SDS011;31345;51.522;10.702;2023-03-01T11:21:55;14.80;;;6.77;;
45620;SDS011;31345;51.522;10.702;2023-03-01T11:24:36;10.17;;;6.40;;
45620;SDS011;31345;51.522;10.702;2023-03-01T11:27:16;10.90;;;6.03;;
45620;SDS011;31345;51.522;10.702;2023-03-01T11:29:48;8.90;;;6.70;;
45620;SDS011;31345;51.522;10.702;2023-03-01T11:32:19;14.67;;;6.77;;
45620;SDS011;31345;51.522;10.702;2023-03-01T11:34:53;10.73;;;6.10;;
45620;SDS011;31345;51.522;10.702;2023-03-01T11:37:33;10.00;;;5.90;;
45620;SDS011;31345;51.522;10.702;2023-03-01T11:40:10;8.37;;;5.00;;
45620;SDS011;31345;51.522;10.702;2023-03-01T11:42:51;7.50;;;5.10;;
45620;SDS011;31345;51.522;10.702;2023-03-01T11:45:33;7.97;;;5.17;;
45620;SDS011;31345;51.522;10.702;2023-03-01T11:51:05;7.50;;;5.88;;
45620;SDS011;31345;51.522;10.702;2023-03-01T11:53:53;13.50;;;6.80;;
45620;SDS011;31345;51.522;10.702;2023-03-01T11:56:34;7.63;;;5.30;;
45620;SDS011;31345;51.522;10.702;2023-03-01T12:02:12;8.10;;;5.63;;
45620;SDS011;31345;51.522;10.702;2023-03-01T12:07:57;10.47;;;5.73;;
45620;SDS011;31345;51.522;10.702;2023-03-01T12:10:42;8.07;;;5.27;;
45620;SDS011;31345;51.522;10.702;2023-03-01T12:13:23;8.53;;;5.50;;
45620;SDS011;31345;51.522;10.702;2023-03-01T12:16:15;7.23;;;5.10;;
45620;SDS011;31345;51.522;10.702;2023-03-01T12:19:01;9.40;;;5.55;;
45620;SDS011;31345;51.522;10.702;2023-03-01T12:21:51;9.60;;;6.10;;
45620;SDS011;31345;51.522;10.702;2023-03-01T12:24:39;9.63;;;5.57;;
45620;SDS011;31345;51.522;10.702;2023-03-01T12:27:25;8.87;;;4.97;;
45620;SDS011;31345;51.522;10.702;2023-03-01T12:30:21;11.93;;;5.27;;
45620;SDS011;31345;51.522;10.702;2023-03-01T12:33:07;8.67;;;4.80;;
45620;SDS011;31345;51.522;10.702;2023-03-01T12:39:04;9.23;;;4.87;;
45620;SDS011;31345;51.522;10.702;2023-03-01T12:41:53;8.77;;;5.07;;
45620;SDS011;31345;51.522;10.702;2023-03-01T12:44:41;7.50;;;4.40;;
45620;SDS011;31345;51.522;10.702;2023-03-01T12:47:29;7.97;;;4.70;;
45620;SDS011;31345;51.522;10.702;2023-03-01T12:50:17;6.77;;;4.40;;
45620;SDS011;31345;51.522;10.702;2023-03-01T12:52:53;6.43;;;3.67;;
45620;SDS011;31345;51.522;10.702;2023-03-01T12:55:29;6.57;;;4.37;;
45620;SDS011;31345;51.522;10.702;2023-03-01T12:58:07;6.77;;;3.93;;
45620;SDS011;31345;51.522;10.702;2023-03-01T13:00:54;6.03;;;4.13;;
45620;SDS011;31345;51.522;10.702;2023-03-01T13:03:38;7.40;;;3.83;;
45620;SDS011;31345;51.522;10.702;2023-03-01T13:06:21;7.57;;;4.37;;
45620;SDS011;31345;51.522;10.702;2023-03-01T13:09:04;6.03;;;3.37;;
45620;SDS011;31345;51.522;10.702;2023-03-01T13:11:43;5.70;;;3.58;;
45620;SDS011;31345;51.522;10.702;2023-03-01T13:14:34;6.00;;;3.57;;
45620;SDS011;31345;51.522;10.702;2023-03-01T13:17:20;7.27;;;4.07;;
45620;SDS011;31345;51.522;10.702;2023-03-01T13:20:11;5.40;;;3.40;;
45620;SDS011;31345;51.522;10.702;2023-03-01T13:22:40;6.95;;;4.00;;
45620;SDS011;31345;51.522;10.702;2023-03-01T13:25:14;5.63;;;3.75;;
45620;SDS011;31345;51.522;10.702;2023-03-01T13:27:49;5.60;;;3.43;;
45620;SDS011;31345;51.522;10.702;2023-03-01T13:33:37;7.07;;;3.47;;
45620;SDS011;31345;51.522;10.702;2023-03-01T13:39:28;8.00;;;4.17;;
45620;SDS011;31345;51.522;10.702;2023-03-01T13:48:04;7.18;;;4.55;;
45620;SDS011;31345;51.522;10.702;2023-03-01T13:50:43;7.23;;;4.50;;
45620;SDS011;31345;51.522;10.702;2023-03-01T13:53:16;9.07;;;5.13;;
45620;SDS011;31345;51.522;10.702;2023-03-01T13:55:50;12.15;;;6.53;;
45620;SDS011;31345;51.522;10.702;2023-03-01T13:58:28;6.95;;;4.55;;
45620;SDS011;31345;51.522;10.702;2023-03-01T14:01:02;7.87;;;4.70;;
45620;SDS011;31345;51.522;10.702;2023-03-01T14:03:40;8.38;;;4.75;;
45620;SDS011;31345;51.522;10.702;2023-03-01T14:06:15;7.68;;;5.28;;
45620;SDS011;31345;51.522;10.702;2023-03-01T14:09:00;14.10;;;6.68;;
45620;SDS011;31345;51.522;10.702;2023-03-01T14:11:43;7.53;;;4.80;;
45620;SDS011;31345;51.522;10.702;2023-03-01T14:17:05;9.77;;;4.90;;
45620;SDS011;31345;51.522;10.702;2023-03-01T14:19:45;6.00;;;3.88;;
45620;SDS011;31345;51.522;10.702;2023-03-01T14:22:16;7.18;;;4.45;;
45620;SDS011;31345;51.522;10.702;2023-03-01T14:24:54;6.53;;;4.30;;
45620;SDS011;31345;51.522;10.702;2023-03-01T14:27:25;8.35;;;4.05;;
45620;SDS011;31345;51.522;10.702;2023-03-01T14:30:00;9.75;;;4.47;;
45620;SDS011;31345;51.522;10.702;2023-03-01T14:32:35;7.77;;;4.47;;
45620;SDS011;31345;51.522;10.702;2023-03-01T14:35:16;8.55;;;3.83;;
45620;SDS011;31345;51.522;10.702;2023-03-01T14:37:53;6.60;;;4.63;;
45620;SDS011;31345;51.522;10.702;2023-03-01T14:40:26;6.53;;;4.43;;
45620;SDS011;31345;51.522;10.702;2023-03-01T14:42:56;8.20;;;4.47;;
45620;SDS011;31345;51.522;10.702;2023-03-01T14:45:31;7.60;;;3.90;;
45620;SDS011;31345;51.522;10.702;2023-03-01T14:48:04;5.30;;;3.53;;
45620;SDS011;31345;51.522;10.702;2023-03-01T14:50:34;6.90;;;4.23;;
45620;SDS011;31345;51.522;10.702;2023-03-01T14:53:12;5.27;;;3.57;;
45620;SDS011;31345;51.522;10.702;2023-03-01T14:55:50;9.87;;;4.47;;
45620;SDS011;31345;51.522;10.702;2023-03-01T14:58:24;6.33;;;4.00;;
45620;SDS011;31345;51.522;10.702;2023-03-01T15:00:59;5.73;;;3.57;;
45620;SDS011;31345;51.522;10.702;2023-03-01T15:03:33;6.70;;;4.30;;
45620;SDS011;31345;51.522;10.702;2023-03-01T15:06:08;11.73;;;4.70;;
45620;SDS011;31345;51.522;10.702;2023-03-01T15:08:40;6.33;;;4.23;;
45620;SDS011;31345;51.522;10.702;2023-03-01T15:11:17;7.87;;;4.67;;
45620;SDS011;31345;51.522;10.702;2023-03-01T15:13:50;7.67;;;4.73;;
45620;SDS011;31345;51.522;10.702;2023-03-01T15:16:19;6.73;;;4.57;;
45620;SDS011;31345;51.522;10.702;2023-03-01T15:18:50;6.32;;;4.28;;
45620;SDS011;31345;51.522;10.702;2023-03-01T15:21:26;8.13;;;5.10;;
45620;SDS011;31345;51.522;10.702;2023-03-01T15:24:05;9.67;;;5.13;;
45620;SDS011;31345;51.522;10.702;2023-03-01T15:26:51;7.87;;;4.80;;
45620;SDS011;31345;51.522;10.702;2023-03-01T15:29:26;7.10;;;4.83;;
45620;SDS011;31345;51.522;10.702;2023-03-01T15:32:02;11.90;;;5.60;;
45620;SDS011;31345;51.522;10.702;2023-03-01T15:34:36;8.20;;;5.13;;
45620;SDS011;31345;51.522;10.702;2023-03-01T15:37:05;12.00;;;5.83;;